sensor_id;sensor_type;location;lat;lon;timestamp;temperature;humidity
42913;DHT22;50720;54.324;18.558;2023-04-15T00:00:57;10.20;99.90
42913;DHT22;50720;54.324;18.558;2023-04-15T00:03:27;10.20;99.90
42913;DHT22;50720;54.324;18.558;2023-04-15T00:05:57;10.30;99.90
42913;DHT22;50720;54.324;18.558;2023-04-15T00:08:27;10.10;99.90
42913;DHT22;50720;54.324;18.558;2023-04-15T00:10:57;10.20;99.90
42913;DHT22;50720;54.324;18.558;2023-04-15T00:13:31;10.20;99.90
42913;DHT22;50720;54.324;18.558;2023-04-15T00:16:01;10.10;99.90
42913;DHT22;50720;54.324;18.558;2023-04-15T00:18:30;10.10;99.90
42913;DHT22;50720;54.324;18.558;2023-04-15T00:21:00;10.10;99.90
42913;DHT22;50720;54.324;18.558;2023-04-15T00:23:30;10.10;99.90
42913;DHT22;50720;54.324;18.558;2023-04-15T00:25:59;10.10;99.90
42913;DHT22;50720;54.324;18.558;2023-04-15T00:28:30;10.10;99.90
42913;DHT22;50720;54.324;18.558;2023-04-15T00:31:00;10.10;99.90
42913;DHT22;50720;54.324;18.558;2023-04-15T00:33:31;10.10;99.90
42913;DHT22;50720;54.324;18.558;2023-04-15T00:36:01;10.20;99.90
42913;DHT22;50720;54.324;18.558;2023-04-15T00:38:30;10.20;99.90
42913;DHT22;50720;54.324;18.558;2023-04-15T00:41:00;10.20;99.90
42913;DHT22;50720;54.324;18.558;2023-04-15T00:43:32;10.20;99.90
42913;DHT22;50720;54.324;18.558;2023-04-15T00:46:03;10.20;99.90
42913;DHT22;50720;54.324;18.558;2023-04-15T00:48:32;10.20;99.90
42913;DHT22;50720;54.324;18.558;2023-04-15T00:51:03;10.20;99.90
42913;DHT22;50720;54.324;18.558;2023-04-15T00:53:32;10.20;99.90
42913;DHT22;50720;54.324;18.558;2023-04-15T00:56:02;10.20;99.90
42913;DHT22;50720;54.324;18.558;2023-04-15T00:58:32;10.20;99.90
42913;DHT22;50720;54.324;18.558;2023-04-15T01:01:04;10.20;99.90
42913;DHT22;50720;54.324;18.558;2023-04-15T01:03:38;10.20;99.90
42913;DHT22;50720;54.324;18.558;2023-04-15T01:06:08;10.10;99.90
42913;DHT22;50720;54.324;18.558;2023-04-15T01:08:38;10.10;99.90
42913;DHT22;50720;54.324;18.558;2023-04-15T01:11:08;10.10;99.90
42913;DHT22;50720;54.324;18.558;2023-04-15T01:13:40;10.20;99.90
42913;DHT22;50720;54.324;18.558;2023-04-15T01:16:10;10.20;99.90
42913;DHT22;50720;54.324;18.558;2023-04-15T01:18:40;10.10;99.90
42913;DHT22;50720;54.324;18.558;2023-04-15T01:21:10;10.00;99.90
42913;DHT22;50720;54.324;18.558;2023-04-15T01:23:40;9.90;99.90
42913;DHT22;50720;54.324;18.558;2023-04-15T01:26:12;9.90;99.90
42913;DHT22;50720;54.324;18.558;2023-04-15T01:28:42;9.90;99.90
42913;DHT22;50720;54.324;18.558;2023-04-15T01:31:14;9.80;99.90
42913;DHT22;50720;54.324;18.558;2023-04-15T01:33:45;9.80;99.90
42913;DHT22;50720;54.324;18.558;2023-04-15T01:36:15;9.80;99.90
42913;DHT22;50720;54.324;18.558;2023-04-15T01:38:44;9.80;99.90
42913;DHT22;50720;54.324;18.558;2023-04-15T01:41:16;9.80;99.90
42913;DHT22;50720;54.324;18.558;2023-04-15T01:43:50;9.80;99.90
42913;DHT22;50720;54.324;18.558;2023-04-15T01:46:20;9.70;99.90
42913;DHT22;50720;54.324;18.558;2023-04-15T01:48:50;9.70;99.90
42913;DHT22;50720;54.324;18.558;2023-04-15T01:51:19;9.70;99.90
42913;DHT22;50720;54.324;18.558;2023-04-15T01:53:49;9.70;99.90
42913;DHT22;50720;54.324;18.558;2023-04-15T01:56:20;9.80;99.90
42913;DHT22;50720;54.324;18.558;2023-04-15T01:58:50;9.80;99.90
42913;DHT22;50720;54.324;18.558;2023-04-15T02:01:20;9.80;99.90
42913;DHT22;50720;54.324;18.558;2023-04-15T02:03:49;9.90;99.90
42913;DHT22;50720;54.324;18.558;2023-04-15T02:06:20;9.80;99.90
42913;DHT22;50720;54.324;18.558;2023-04-15T02:08:49;9.80;99.90
42913;DHT22;50720;54.324;18.558;2023-04-15T02:11:20;9.80;99.90
42913;DHT22;50720;54.324;18.558;2023-04-15T02:13:50;9.70;99.90
42913;DHT22;50720;54.324;18.558;2023-04-15T02:16:21;9.60;99.90
42913;DHT22;50720;54.324;18.558;2023-04-15T02:18:50;9.60;99.90
42913;DHT22;50720;54.324;18.558;2023-04-15T02:21:20;9.70;99.90
42913;DHT22;50720;54.324;18.558;2023-04-15T02:23:50;9.60;99.90
42913;DHT22;50720;54.324;18.558;2023-04-15T02:26:22;9.60;99.90
42913;DHT22;50720;54.324;18.558;2023-04-15T02:28:53;9.60;99.90
42913;DHT22;50720;54.324;18.558;2023-04-15T02:31:24;9.50;99.90
42913;DHT22;50720;54.324;18.558;2023-04-15T02:33:53;9.50;99.90
42913;DHT22;50720;54.324;18.558;2023-04-15T02:36:23;9.50;99.90
42913;DHT22;50720;54.324;18.558;2023-04-15T02:38:53;9.50;99.90
42913;DHT22;50720;54.324;18.558;2023-04-15T02:41:25;9.50;99.90
42913;DHT22;50720;54.324;18.558;2023-04-15T02:43:55;9.50;99.90
42913;DHT22;50720;54.324;18.558;2023-04-15T02:46:25;9.50;99.90
42913;DHT22;50720;54.324;18.558;2023-04-15T02:48:55;9.50;99.90
42913;DHT22;50720;54.324;18.558;2023-04-15T02:51:29;9.50;99.90
42913;DHT22;50720;54.324;18.558;2023-04-15T02:53:59;9.50;99.90
42913;DHT22;50720;54.324;18.558;2023-04-15T02:56:31;9.50;99.90
42913;DHT22;50720;54.324;18.558;2023-04-15T02:59:00;9.50;99.90
42913;DHT22;50720;54.324;18.558;2023-04-15T03:01:30;9.60;99.90
42913;DHT22;50720;54.324;18.558;2023-04-15T03:04:00;9.60;99.90
42913;DHT22;50720;54.324;18.558;2023-04-15T03:06:30;9.60;99.90
42913;DHT22;50720;54.324;18.558;2023-04-15T03:08:59;9.60;99.90
42913;DHT22;50720;54.324;18.558;2023-04-15T03:11:31;9.60;99.90
42913;DHT22;50720;54.324;18.558;2023-04-15T03:14:03;9.70;99.90
42913;DHT22;50720;54.324;18.558;2023-04-15T03:16:33;9.70;99.90
42913;DHT22;50720;54.324;18.558;2023-04-15T03:19:03;9.60;99.90
42913;DHT22;50720;54.324;18.558;2023-04-15T03:21:32;9.60;99.90
42913;DHT22;50720;54.324;18.558;2023-04-15T03:24:02;9.60;99.90
42913;DHT22;50720;54.324;18.558;2023-04-15T03:26:33;9.60;99.90
42913;DHT22;50720;54.324;18.558;2023-04-15T03:29:04;9.70;99.90
42913;DHT22;50720;54.324;18.558;2023-04-15T03:31:34;9.70;99.90
42913;DHT22;50720;54.324;18.558;2023-04-15T03:34:03;9.70;99.90
42913;DHT22;50720;54.324;18.558;2023-04-15T03:36:33;9.60;99.90
42913;DHT22;50720;54.324;18.558;2023-04-15T03:39:03;9.60;99.90
42913;DHT22;50720;54.324;18.558;2023-04-15T03:41:34;9.60;99.90
42913;DHT22;50720;54.324;18.558;2023-04-15T03:44:04;9.60;99.90
42913;DHT22;50720;54.324;18.558;2023-04-15T03:46:34;9.60;99.90
42913;DHT22;50720;54.324;18.558;2023-04-15T03:49:04;9.50;99.90
42913;DHT22;50720;54.324;18.558;2023-04-15T03:51:34;9.50;99.90
42913;DHT22;50720;54.324;18.558;2023-04-15T03:54:03;9.50;99.90
42913;DHT22;50720;54.324;18.558;2023-04-15T03:56:34;9.50;99.90
42913;DHT22;50720;54.324;18.558;2023-04-15T03:59:04;9.50;99.90
42913;DHT22;50720;54.324;18.558;2023-04-15T04:01:34;9.50;99.90
42913;DHT22;50720;54.324;18.558;2023-04-15T04:04:03;9.40;99.90
42913;DHT22;50720;54.324;18.558;2023-04-15T04:06:34;9.40;99.90
42913;DHT22;50720;54.324;18.558;2023-04-15T04:09:03;9.40;99.90
42913;DHT22;50720;54.324;18.558;2023-04-15T04:11:34;9.40;99.90
42913;DHT22;50720;54.324;18.558;2023-04-15T04:14:04;9.50;99.90
42913;DHT22;50720;54.324;18.558;2023-04-15T04:16:34;9.60;99.90
42913;DHT22;50720;54.324;18.558;2023-04-15T04:19:03;9.50;99.90
42913;DHT22;50720;54.324;18.558;2023-04-15T04:21:33;9.50;99.90
42913;DHT22;50720;54.324;18.558;2023-04-15T04:24:03;9.50;99.90
42913;DHT22;50720;54.324;18.558;2023-04-15T04:26:34;9.50;99.90
42913;DHT22;50720;54.324;18.558;2023-04-15T04:29:03;9.60;99.90
42913;DHT22;50720;54.324;18.558;2023-04-15T04:31:33;9.60;99.90
42913;DHT22;50720;54.324;18.558;2023-04-15T04:34:04;9.60;99.90
42913;DHT22;50720;54.324;18.558;2023-04-15T04:36:34;9.50;99.90
42913;DHT22;50720;54.324;18.558;2023-04-15T04:39:03;9.50;99.90
42913;DHT22;50720;54.324;18.558;2023-04-15T04:41:35;9.50;99.90
42913;DHT22;50720;54.324;18.558;2023-04-15T04:44:04;9.50;99.90
42913;DHT22;50720;54.324;18.558;2023-04-15T04:46:34;9.60;99.90
42913;DHT22;50720;54.324;18.558;2023-04-15T04:49:03;9.60;99.90
42913;DHT22;50720;54.324;18.558;2023-04-15T04:51:33;9.60;99.90
42913;DHT22;50720;54.324;18.558;2023-04-15T04:54:03;9.60;99.90
42913;DHT22;50720;54.324;18.558;2023-04-15T04:56:35;9.60;99.90
42913;DHT22;50720;54.324;18.558;2023-04-15T04:59:06;9.70;99.90
42913;DHT22;50720;54.324;18.558;2023-04-15T05:01:36;9.70;99.90
42913;DHT22;50720;54.324;18.558;2023-04-15T05:04:06;9.70;99.90
42913;DHT22;50720;54.324;18.558;2023-04-15T05:06:36;9.80;99.90
42913;DHT22;50720;54.324;18.558;2023-04-15T05:09:05;9.80;99.90
42913;DHT22;50720;54.324;18.558;2023-04-15T05:11:37;9.70;99.90
42913;DHT22;50720;54.324;18.558;2023-04-15T05:14:06;9.80;99.90
42913;DHT22;50720;54.324;18.558;2023-04-15T05:16:36;9.80;99.90
42913;DHT22;50720;54.324;18.558;2023-04-15T05:19:05;9.80;99.90
42913;DHT22;50720;54.324;18.558;2023-04-15T05:21:35;9.80;99.90
42913;DHT22;50720;54.324;18.558;2023-04-15T05:24:06;9.90;99.90
42913;DHT22;50720;54.324;18.558;2023-04-15T05:26:37;9.90;99.90
42913;DHT22;50720;54.324;18.558;2023-04-15T05:29:08;9.90;99.90
42913;DHT22;50720;54.324;18.558;2023-04-15T05:31:39;10.00;99.90
42913;DHT22;50720;54.324;18.558;2023-04-15T05:34:09;10.00;99.90
42913;DHT22;50720;54.324;18.558;2023-04-15T05:36:38;10.00;99.90
42913;DHT22;50720;54.324;18.558;2023-04-15T05:39:08;10.00;99.90
42913;DHT22;50720;54.324;18.558;2023-04-15T05:41:39;10.00;99.90
42913;DHT22;50720;54.324;18.558;2023-04-15T05:44:08;10.10;99.90
42913;DHT22;50720;54.324;18.558;2023-04-15T05:46:38;10.20;99.90
42913;DHT22;50720;54.324;18.558;2023-04-15T05:49:08;10.20;99.90
42913;DHT22;50720;54.324;18.558;2023-04-15T05:51:38;10.40;99.90
42913;DHT22;50720;54.324;18.558;2023-04-15T05:54:07;10.40;99.90
42913;DHT22;50720;54.324;18.558;2023-04-15T05:56:39;10.50;99.90
42913;DHT22;50720;54.324;18.558;2023-04-15T05:59:08;10.50;99.90
42913;DHT22;50720;54.324;18.558;2023-04-15T06:01:38;10.60;99.90
42913;DHT22;50720;54.324;18.558;2023-04-15T06:04:07;10.70;99.90
42913;DHT22;50720;54.324;18.558;2023-04-15T06:06:37;10.70;99.90
42913;DHT22;50720;54.324;18.558;2023-04-15T06:09:07;10.80;99.90
42913;DHT22;50720;54.324;18.558;2023-04-15T06:11:39;10.90;99.90
42913;DHT22;50720;54.324;18.558;2023-04-15T06:14:09;10.90;99.90
42913;DHT22;50720;54.324;18.558;2023-04-15T06:16:38;11.00;99.90
42913;DHT22;50720;54.324;18.558;2023-04-15T06:19:08;10.90;99.90
42913;DHT22;50720;54.324;18.558;2023-04-15T06:21:38;10.90;99.90
42913;DHT22;50720;54.324;18.558;2023-04-15T06:24:07;10.90;99.90
42913;DHT22;50720;54.324;18.558;2023-04-15T06:26:39;10.90;99.90
42913;DHT22;50720;54.324;18.558;2023-04-15T06:29:08;10.90;99.90
42913;DHT22;50720;54.324;18.558;2023-04-15T06:31:38;11.00;99.90
42913;DHT22;50720;54.324;18.558;2023-04-15T06:34:08;11.10;99.90
42913;DHT22;50720;54.324;18.558;2023-04-15T06:36:38;11.20;99.90
42913;DHT22;50720;54.324;18.558;2023-04-15T06:39:07;11.20;99.90
42913;DHT22;50720;54.324;18.558;2023-04-15T06:41:39;11.30;99.90
42913;DHT22;50720;54.324;18.558;2023-04-15T06:44:08;11.30;99.90
42913;DHT22;50720;54.324;18.558;2023-04-15T06:46:38;11.30;99.90
42913;DHT22;50720;54.324;18.558;2023-04-15T06:49:08;11.40;99.90
42913;DHT22;50720;54.324;18.558;2023-04-15T06:51:37;11.40;99.90
42913;DHT22;50720;54.324;18.558;2023-04-15T06:54:07;11.30;99.90
42913;DHT22;50720;54.324;18.558;2023-04-15T06:56:38;11.40;99.90
42913;DHT22;50720;54.324;18.558;2023-04-15T06:59:08;11.40;99.90
42913;DHT22;50720;54.324;18.558;2023-04-15T07:01:39;11.50;99.90
42913;DHT22;50720;54.324;18.558;2023-04-15T07:04:09;11.50;99.90
42913;DHT22;50720;54.324;18.558;2023-04-15T07:06:39;11.60;99.90
42913;DHT22;50720;54.324;18.558;2023-04-15T07:09:09;11.50;99.90
42913;DHT22;50720;54.324;18.558;2023-04-15T07:11:41;11.60;99.90
42913;DHT22;50720;54.324;18.558;2023-04-15T07:14:10;11.60;99.90
42913;DHT22;50720;54.324;18.558;2023-04-15T07:16:40;11.60;99.90
42913;DHT22;50720;54.324;18.558;2023-04-15T07:19:10;11.60;99.90
42913;DHT22;50720;54.324;18.558;2023-04-15T07:21:40;11.60;99.90
42913;DHT22;50720;54.324;18.558;2023-04-15T07:24:10;11.60;99.90
42913;DHT22;50720;54.324;18.558;2023-04-15T07:26:41;11.70;99.90
42913;DHT22;50720;54.324;18.558;2023-04-15T07:29:10;11.70;99.90
42913;DHT22;50720;54.324;18.558;2023-04-15T07:31:40;11.70;99.90
42913;DHT22;50720;54.324;18.558;2023-04-15T07:34:10;11.70;99.90
42913;DHT22;50720;54.324;18.558;2023-04-15T07:36:40;11.70;99.90
42913;DHT22;50720;54.324;18.558;2023-04-15T07:39:09;11.80;99.90
42913;DHT22;50720;54.324;18.558;2023-04-15T07:41:40;11.70;99.90
42913;DHT22;50720;54.324;18.558;2023-04-15T07:44:10;11.70;99.90
42913;DHT22;50720;54.324;18.558;2023-04-15T07:46:40;11.80;99.90
42913;DHT22;50720;54.324;18.558;2023-04-15T07:49:10;11.80;99.90
42913;DHT22;50720;54.324;18.558;2023-04-15T07:51:40;11.80;99.90
42913;DHT22;50720;54.324;18.558;2023-04-15T07:54:11;11.90;99.90
42913;DHT22;50720;54.324;18.558;2023-04-15T07:56:42;12.00;99.90
42913;DHT22;50720;54.324;18.558;2023-04-15T07:59:11;12.00;99.90
42913;DHT22;50720;54.324;18.558;2023-04-15T08:01:42;12.00;99.90
42913;DHT22;50720;54.324;18.558;2023-04-15T08:04:12;12.00;99.90
42913;DHT22;50720;54.324;18.558;2023-04-15T08:06:44;12.00;99.90
42913;DHT22;50720;54.324;18.558;2023-04-15T08:09:15;12.00;99.90
42913;DHT22;50720;54.324;18.558;2023-04-15T08:11:47;11.90;99.90
42913;DHT22;50720;54.324;18.558;2023-04-15T08:14:17;11.90;99.90
42913;DHT22;50720;54.324;18.558;2023-04-15T08:16:47;11.80;99.90
42913;DHT22;50720;54.324;18.558;2023-04-15T08:19:16;11.80;99.90
42913;DHT22;50720;54.324;18.558;2023-04-15T08:21:46;11.80;99.90
42913;DHT22;50720;54.324;18.558;2023-04-15T08:24:16;11.80;99.90
42913;DHT22;50720;54.324;18.558;2023-04-15T08:26:48;11.70;99.90
42913;DHT22;50720;54.324;18.558;2023-04-15T08:29:17;11.70;99.90
42913;DHT22;50720;54.324;18.558;2023-04-15T08:31:47;11.70;99.90
42913;DHT22;50720;54.324;18.558;2023-04-15T08:34:17;11.60;99.90
42913;DHT22;50720;54.324;18.558;2023-04-15T08:36:47;11.60;99.90
42913;DHT22;50720;54.324;18.558;2023-04-15T08:39:17;11.60;99.90
42913;DHT22;50720;54.324;18.558;2023-04-15T08:41:54;11.50;99.90
42913;DHT22;50720;54.324;18.558;2023-04-15T08:44:24;11.60;99.90
42913;DHT22;50720;54.324;18.558;2023-04-15T08:46:56;11.60;99.90
42913;DHT22;50720;54.324;18.558;2023-04-15T08:49:29;11.70;99.90
42913;DHT22;50720;54.324;18.558;2023-04-15T08:52:00;11.60;99.90
42913;DHT22;50720;54.324;18.558;2023-04-15T08:54:31;11.80;99.90
42913;DHT22;50720;54.324;18.558;2023-04-15T08:57:03;11.80;99.90
42913;DHT22;50720;54.324;18.558;2023-04-15T08:59:33;11.90;99.90
42913;DHT22;50720;54.324;18.558;2023-04-15T09:02:03;11.90;99.90
42913;DHT22;50720;54.324;18.558;2023-04-15T09:04:33;12.00;99.90
42913;DHT22;50720;54.324;18.558;2023-04-15T09:07:02;12.00;99.90
42913;DHT22;50720;54.324;18.558;2023-04-15T09:09:32;12.00;99.90
42913;DHT22;50720;54.324;18.558;2023-04-15T09:12:05;11.90;99.90
42913;DHT22;50720;54.324;18.558;2023-04-15T09:14:35;11.90;99.90
42913;DHT22;50720;54.324;18.558;2023-04-15T09:17:09;11.80;99.90
42913;DHT22;50720;54.324;18.558;2023-04-15T09:19:39;11.90;99.90
42913;DHT22;50720;54.324;18.558;2023-04-15T09:22:09;11.80;99.90
42913;DHT22;50720;54.324;18.558;2023-04-15T09:24:39;11.90;99.90
42913;DHT22;50720;54.324;18.558;2023-04-15T09:27:15;12.00;99.90
42913;DHT22;50720;54.324;18.558;2023-04-15T09:29:49;12.00;99.90
42913;DHT22;50720;54.324;18.558;2023-04-15T09:32:19;12.00;99.90
42913;DHT22;50720;54.324;18.558;2023-04-15T09:34:51;11.90;99.90
42913;DHT22;50720;54.324;18.558;2023-04-15T09:37:34;12.00;99.90
42913;DHT22;50720;54.324;18.558;2023-04-15T09:40:04;12.00;99.90
42913;DHT22;50720;54.324;18.558;2023-04-15T09:42:36;12.10;99.90
42913;DHT22;50720;54.324;18.558;2023-04-15T09:45:22;12.00;99.90
42913;DHT22;50720;54.324;18.558;2023-04-15T09:47:57;11.90;99.90
42913;DHT22;50720;54.324;18.558;2023-04-15T09:50:28;11.90;99.90
42913;DHT22;50720;54.324;18.558;2023-04-15T09:52:57;11.90;99.90
42913;DHT22;50720;54.324;18.558;2023-04-15T09:55:27;12.00;99.90
42913;DHT22;50720;54.324;18.558;2023-04-15T09:58:08;12.10;99.90
42913;DHT22;50720;54.324;18.558;2023-04-15T10:00:38;12.10;99.90
42913;DHT22;50720;54.324;18.558;2023-04-15T10:03:09;12.20;99.90
42913;DHT22;50720;54.324;18.558;2023-04-15T10:05:39;12.20;99.90
42913;DHT22;50720;54.324;18.558;2023-04-15T10:08:09;12.30;99.90
42913;DHT22;50720;54.324;18.558;2023-04-15T10:10:39;12.30;99.90
42913;DHT22;50720;54.324;18.558;2023-04-15T10:13:11;12.30;99.90
42913;DHT22;50720;54.324;18.558;2023-04-15T10:15:43;12.30;99.90
42913;DHT22;50720;54.324;18.558;2023-04-15T10:18:15;12.20;99.90
42913;DHT22;50720;54.324;18.558;2023-04-15T10:20:47;12.20;99.90
42913;DHT22;50720;54.324;18.558;2023-04-15T10:23:17;12.20;99.90
42913;DHT22;50720;54.324;18.558;2023-04-15T10:25:49;12.20;99.90
42913;DHT22;50720;54.324;18.558;2023-04-15T10:28:21;12.10;99.90
42913;DHT22;50720;54.324;18.558;2023-04-15T10:30:51;12.20;99.90
42913;DHT22;50720;54.324;18.558;2023-04-15T10:33:22;12.30;99.90
42913;DHT22;50720;54.324;18.558;2023-04-15T10:35:53;12.30;99.90
42913;DHT22;50720;54.324;18.558;2023-04-15T10:38:34;12.50;99.90
42913;DHT22;50720;54.324;18.558;2023-04-15T10:41:16;12.60;99.90
42913;DHT22;50720;54.324;18.558;2023-04-15T10:43:51;12.70;99.90
42913;DHT22;50720;54.324;18.558;2023-04-15T10:46:22;12.80;99.90
42913;DHT22;50720;54.324;18.558;2023-04-15T10:48:53;13.00;99.90
42913;DHT22;50720;54.324;18.558;2023-04-15T10:51:29;13.10;99.90
42913;DHT22;50720;54.324;18.558;2023-04-15T10:53:59;13.10;99.90
42913;DHT22;50720;54.324;18.558;2023-04-15T10:56:29;13.10;99.90
42913;DHT22;50720;54.324;18.558;2023-04-15T10:59:01;13.10;99.90
42913;DHT22;50720;54.324;18.558;2023-04-15T11:01:53;13.10;99.90
42913;DHT22;50720;54.324;18.558;2023-04-15T11:04:53;13.10;99.90
42913;DHT22;50720;54.324;18.558;2023-04-15T11:07:37;13.10;99.90
42913;DHT22;50720;54.324;18.558;2023-04-15T11:13:27;12.80;99.90
42913;DHT22;50720;54.324;18.558;2023-04-15T11:16:03;12.50;99.90
42913;DHT22;50720;54.324;18.558;2023-04-15T11:18:33;12.20;99.90
42913;DHT22;50720;54.324;18.558;2023-04-15T11:21:04;12.20;99.90
42913;DHT22;50720;54.324;18.558;2023-04-15T11:23:37;12.20;99.90
42913;DHT22;50720;54.324;18.558;2023-04-15T11:26:08;12.30;99.90
42913;DHT22;50720;54.324;18.558;2023-04-15T11:28:41;12.40;99.90
42913;DHT22;50720;54.324;18.558;2023-04-15T11:31:14;12.50;99.90
42913;DHT22;50720;54.324;18.558;2023-04-15T11:33:54;12.60;99.90
42913;DHT22;50720;54.324;18.558;2023-04-15T11:36:25;12.80;99.90
42913;DHT22;50720;54.324;18.558;2023-04-15T11:38:57;12.70;99.90
42913;DHT22;50720;54.324;18.558;2023-04-15T11:41:26;12.80;99.90
42913;DHT22;50720;54.324;18.558;2023-04-15T11:43:56;12.70;99.90
42913;DHT22;50720;54.324;18.558;2023-04-15T11:46:30;12.80;99.90
42913;DHT22;50720;54.324;18.558;2023-04-15T11:49:00;12.80;99.90
42913;DHT22;50720;54.324;18.558;2023-04-15T11:51:32;13.00;99.90
42913;DHT22;50720;54.324;18.558;2023-04-15T11:54:02;12.80;99.90
42913;DHT22;50720;54.324;18.558;2023-04-15T11:56:32;12.80;99.90
42913;DHT22;50720;54.324;18.558;2023-04-15T11:59:02;13.10;99.90
42913;DHT22;50720;54.324;18.558;2023-04-15T12:01:33;13.30;99.90
42913;DHT22;50720;54.324;18.558;2023-04-15T12:04:10;13.60;99.90
42913;DHT22;50720;54.324;18.558;2023-04-15T12:06:41;13.80;99.90
42913;DHT22;50720;54.324;18.558;2023-04-15T12:09:12;13.80;99.90
42913;DHT22;50720;54.324;18.558;2023-04-15T12:11:43;13.90;99.90
42913;DHT22;50720;54.324;18.558;2023-04-15T12:14:23;13.90;99.90
42913;DHT22;50720;54.324;18.558;2023-04-15T12:16:56;13.80;99.90
42913;DHT22;50720;54.324;18.558;2023-04-15T12:19:29;13.70;99.90
42913;DHT22;50720;54.324;18.558;2023-04-15T12:22:00;13.70;99.90
42913;DHT22;50720;54.324;18.558;2023-04-15T12:24:31;13.60;99.90
42913;DHT22;50720;54.324;18.558;2023-04-15T12:27:02;13.30;99.90
42913;DHT22;50720;54.324;18.558;2023-04-15T12:29:34;13.10;99.90
42913;DHT22;50720;54.324;18.558;2023-04-15T12:32:08;12.90;99.90
42913;DHT22;50720;54.324;18.558;2023-04-15T12:34:40;12.80;99.90
42913;DHT22;50720;54.324;18.558;2023-04-15T12:37:11;12.70;99.90
42913;DHT22;50720;54.324;18.558;2023-04-15T12:39:43;12.50;99.90
42913;DHT22;50720;54.324;18.558;2023-04-15T12:42:14;12.50;99.90
42913;DHT22;50720;54.324;18.558;2023-04-15T12:44:43;12.40;99.90
42913;DHT22;50720;54.324;18.558;2023-04-15T12:47:14;12.40;99.90
42913;DHT22;50720;54.324;18.558;2023-04-15T12:49:44;12.20;99.90
42913;DHT22;50720;54.324;18.558;2023-04-15T12:52:13;12.10;99.90
42913;DHT22;50720;54.324;18.558;2023-04-15T12:54:43;12.00;99.90
42913;DHT22;50720;54.324;18.558;2023-04-15T12:57:13;12.00;99.90
42913;DHT22;50720;54.324;18.558;2023-04-15T12:59:42;12.00;99.90
42913;DHT22;50720;54.324;18.558;2023-04-15T13:02:13;11.90;99.90
42913;DHT22;50720;54.324;18.558;2023-04-15T13:04:43;11.80;99.90
42913;DHT22;50720;54.324;18.558;2023-04-15T13:07:13;11.80;99.90
42913;DHT22;50720;54.324;18.558;2023-04-15T13:09:43;11.70;99.90
42913;DHT22;50720;54.324;18.558;2023-04-15T13:12:13;11.60;99.90
42913;DHT22;50720;54.324;18.558;2023-04-15T13:14:43;11.60;99.90
42913;DHT22;50720;54.324;18.558;2023-04-15T13:17:14;11.60;99.90
42913;DHT22;50720;54.324;18.558;2023-04-15T13:19:46;11.70;99.90
42913;DHT22;50720;54.324;18.558;2023-04-15T13:22:15;11.50;99.90
42913;DHT22;50720;54.324;18.558;2023-04-15T13:24:45;11.50;99.90
42913;DHT22;50720;54.324;18.558;2023-04-15T13:27:15;11.60;99.90
42913;DHT22;50720;54.324;18.558;2023-04-15T13:29:45;11.60;99.90
42913;DHT22;50720;54.324;18.558;2023-04-15T13:32:15;11.60;99.90
42913;DHT22;50720;54.324;18.558;2023-04-15T13:34:45;11.60;99.90
42913;DHT22;50720;54.324;18.558;2023-04-15T13:37:15;11.50;99.90
42913;DHT22;50720;54.324;18.558;2023-04-15T13:39:45;11.50;99.90
42913;DHT22;50720;54.324;18.558;2023-04-15T13:42:15;11.50;99.90
42913;DHT22;50720;54.324;18.558;2023-04-15T13:44:45;11.60;99.90
42913;DHT22;50720;54.324;18.558;2023-04-15T13:47:16;11.60;99.90
42913;DHT22;50720;54.324;18.558;2023-04-15T13:49:46;11.60;99.90
42913;DHT22;50720;54.324;18.558;2023-04-15T13:52:16;11.50;99.90
42913;DHT22;50720;54.324;18.558;2023-04-15T13:54:45;11.60;99.90
42913;DHT22;50720;54.324;18.558;2023-04-15T13:57:35;11.60;99.90
42913;DHT22;50720;54.324;18.558;2023-04-15T14:00:06;11.60;99.90
42913;DHT22;50720;54.324;18.558;2023-04-15T14:02:39;11.60;99.90
42913;DHT22;50720;54.324;18.558;2023-04-15T14:05:10;11.50;99.90
42913;DHT22;50720;54.324;18.558;2023-04-15T14:07:39;11.50;99.90
42913;DHT22;50720;54.324;18.558;2023-04-15T14:10:09;11.50;99.90
42913;DHT22;50720;54.324;18.558;2023-04-15T14:12:38;11.50;99.90
42913;DHT22;50720;54.324;18.558;2023-04-15T14:15:09;11.50;99.90
42913;DHT22;50720;54.324;18.558;2023-04-15T14:17:40;11.50;99.90
42913;DHT22;50720;54.324;18.558;2023-04-15T14:20:11;11.50;99.90
42913;DHT22;50720;54.324;18.558;2023-04-15T14:22:43;11.50;99.90
42913;DHT22;50720;54.324;18.558;2023-04-15T14:25:13;11.50;99.90
42913;DHT22;50720;54.324;18.558;2023-04-15T14:27:59;11.40;99.90
42913;DHT22;50720;54.324;18.558;2023-04-15T14:30:29;11.50;99.90
42913;DHT22;50720;54.324;18.558;2023-04-15T14:33:00;11.40;99.90
42913;DHT22;50720;54.324;18.558;2023-04-15T14:35:31;11.40;99.90
42913;DHT22;50720;54.324;18.558;2023-04-15T14:38:00;11.40;99.90
42913;DHT22;50720;54.324;18.558;2023-04-15T14:40:31;11.50;99.90
42913;DHT22;50720;54.324;18.558;2023-04-15T14:43:02;11.50;99.90
42913;DHT22;50720;54.324;18.558;2023-04-15T14:45:31;11.40;99.90
42913;DHT22;50720;54.324;18.558;2023-04-15T14:48:02;11.40;99.90
42913;DHT22;50720;54.324;18.558;2023-04-15T14:50:34;11.50;99.90
42913;DHT22;50720;54.324;18.558;2023-04-15T14:53:03;11.50;99.90
42913;DHT22;50720;54.324;18.558;2023-04-15T14:55:33;11.50;99.90
42913;DHT22;50720;54.324;18.558;2023-04-15T14:58:02;11.40;99.90
42913;DHT22;50720;54.324;18.558;2023-04-15T15:00:33;11.40;99.90
42913;DHT22;50720;54.324;18.558;2023-04-15T15:03:04;11.30;99.90
42913;DHT22;50720;54.324;18.558;2023-04-15T15:05:40;11.30;99.90
42913;DHT22;50720;54.324;18.558;2023-04-15T15:08:11;11.30;99.90
42913;DHT22;50720;54.324;18.558;2023-04-15T15:10:41;11.20;99.90
42913;DHT22;50720;54.324;18.558;2023-04-15T15:13:16;11.10;99.90
42913;DHT22;50720;54.324;18.558;2023-04-15T15:15:47;11.00;99.90
42913;DHT22;50720;54.324;18.558;2023-04-15T15:18:18;11.10;99.90
42913;DHT22;50720;54.324;18.558;2023-04-15T15:20:48;11.00;99.90
42913;DHT22;50720;54.324;18.558;2023-04-15T15:23:18;11.00;99.90
42913;DHT22;50720;54.324;18.558;2023-04-15T15:25:47;11.10;99.90
42913;DHT22;50720;54.324;18.558;2023-04-15T15:28:17;11.00;99.90
42913;DHT22;50720;54.324;18.558;2023-04-15T15:30:48;11.10;99.90
42913;DHT22;50720;54.324;18.558;2023-04-15T15:33:19;11.00;99.90
42913;DHT22;50720;54.324;18.558;2023-04-15T15:35:50;10.90;99.90
42913;DHT22;50720;54.324;18.558;2023-04-15T15:38:19;10.90;99.90
42913;DHT22;50720;54.324;18.558;2023-04-15T15:40:49;10.90;99.90
42913;DHT22;50720;54.324;18.558;2023-04-15T15:43:19;10.90;99.90
42913;DHT22;50720;54.324;18.558;2023-04-15T15:45:49;10.80;99.90